Terminal Aerodrome Forecast
Issued by NWS

Current Version | Previous Version | Text Only | Print | Product List | Glossary On
Versions: 1 2 3 4 5 6 7 8 9 10 11 12 13 14 15 16 17 18 19 20 21
510
FTUS43 KLSX 200811 AAA
TAFCPS
TAF AMD
KCPS 200811Z 2008/2106 20004KT P6SM OVC004
     FM201000 VRB03KT 1/2SM FG OVC002
     FM201600 16005KT 1SM BR OVC003
     FM201800 16008KT 5SM BR OVC008
     FM202000 16009KT P6SM OVC015=

USA.gov is the U.S. government's official web portal to all federal, state and local government web resources and services.